Time;durP1;ratioP1;P1;durP2;ratioP2;P2;SDS_P1;SDS_P2;PMS_P1;PMS_P2;Temp;Humidity;BMP_temperature;BMP_pressure;BME280_temperature;BME280_humidity;BME280_pressure;Samples;Min_cycle;Max_cycle;Signal;HPM_P1;HPM_P2
2023/05/09 00:00:32;;;;;;;6.70;4.50;;;;;;;7.20;48.42;100625.56;107206;1257;74490;-37
2023/05/09 00:03:01;;;;;;;6.20;4.20;;;;;;;7.17;48.56;100621.80;107288;1257;70276;-37
2023/05/09 00:05:28;;;;;;;10.00;4.10;;;;;;;7.12;48.76;100620.84;107248;1260;74092;-37
2023/05/09 00:07:55;;;;;;;6.20;4.30;;;;;;;7.14;49.13;100621.96;107256;1260;60756;-37
2023/05/09 00:10:26;;;;;;;9.80;4.70;;;;;;;7.13;49.27;100618.64;107147;1258;62470;-37
2023/05/09 00:12:53;;;;;;;8.90;4.80;;;;;;;7.11;49.15;100620.86;107160;1257;74306;-38
2023/05/09 00:15:20;;;;;;;8.50;5.00;;;;;;;7.08;49.35;100617.24;107240;1257;70331;-38
2023/05/09 00:17:47;;;;;;;10.60;5.10;;;;;;;7.07;49.79;100614.73;107237;1258;72779;-38
2023/05/09 00:20:14;;;;;;;8.00;4.50;;;;;;;7.07;50.01;100615.75;107243;1260;61882;-38
2023/05/09 00:22:41;;;;;;;8.10;5.10;;;;;;;7.06;50.08;100617.45;107203;1256;61189;-38
2023/05/09 00:25:09;;;;;;;8.80;4.60;;;;;;;7.07;49.83;100618.95;107116;1263;75231;-38
2023/05/09 00:27:36;;;;;;;9.90;4.60;;;;;;;7.07;49.84;100616.03;107052;1263;70275;-37
2023/05/09 00:30:05;;;;;;;8.20;4.90;;;;;;;7.09;50.06;100615.77;107081;1259;72097;-38
2023/05/09 00:32:33;;;;;;;7.40;4.60;;;;;;;7.10;50.18;100616.07;107209;1260;61871;-37
2023/05/09 00:35:00;;;;;;;7.00;4.30;;;;;;;7.12;50.20;100621.05;107070;1260;62788;-38
2023/05/09 00:37:29;;;;;;;7.80;4.50;;;;;;;7.13;50.69;100620.31;107138;1257;74549;-38
2023/05/09 00:39:56;;;;;;;8.90;4.40;;;;;;;7.16;50.64;100618.26;107112;1261;69915;-38
2023/05/09 00:42:23;;;;;;;8.20;4.90;;;;;;;7.17;50.71;100615.31;107106;1261;74841;-38
2023/05/09 00:44:51;;;;;;;8.70;4.90;;;;;;;7.18;51.02;100614.05;107190;1260;60416;-38
2023/05/09 00:47:19;;;;;;;9.30;4.60;;;;;;;7.17;50.75;100610.17;107047;1260;62344;-38
2023/05/09 00:49:47;;;;;;;8.10;4.80;;;;;;;7.16;50.91;100613.66;106968;1257;75065;-37
2023/05/09 00:52:14;;;;;;;9.90;4.70;;;;;;;7.15;51.07;100614.07;107106;1263;68417;-37
2023/05/09 00:54:42;;;;;;;8.70;5.10;;;;;;;7.13;51.35;100618.27;107127;1263;74821;-37
2023/05/09 00:57:09;;;;;;;6.00;4.20;;;;;;;7.11;51.32;100613.41;107092;1258;61950;-37
2023/05/09 00:59:36;;;;;;;9.80;5.00;;;;;;;7.10;51.29;100612.83;107239;1257;60863;-37
2023/05/09 01:02:03;;;;;;;10.60;4.80;;;;;;;7.11;51.18;100613.02;107155;1257;73599;-38
2023/05/09 01:04:31;;;;;;;7.80;4.60;;;;;;;7.10;51.23;100615.58;107215;1258;69094;-38
2023/05/09 01:07:05;;;;;;;7.90;4.90;;;;;;;7.09;51.33;100614.75;107188;1256;74851;-38
2023/05/09 01:10:10;;;;;;;11.30;5.40;;;;;;;7.09;51.30;100617.38;107181;1257;61834;-38
2023/05/09 01:12:50;;;;;;;9.00;4.90;;;;;;;7.07;51.07;100617.56;107280;1257;61586;-38
2023/05/09 01:15:33;;;;;;;9.40;5.10;;;;;;;7.01;51.08;100615.95;107263;1260;75120;-38
2023/05/09 01:18:12;;;;;;;6.70;4.70;;;;;;;6.97;50.87;100615.70;106445;1257;1003617;-38
2023/05/09 01:20:45;;;;;;;7.50;4.80;;;;;;;6.97;51.38;100619.11;107112;1257;75105;-38
2023/05/09 01:23:42;;;;;;;9.20;4.90;;;;;;;6.98;51.39;100616.94;107187;1257;59292;-38
2023/05/09 01:26:16;;;;;;;8.20;4.80;;;;;;;6.98;51.20;100616.66;107020;1263;62309;-37
2023/05/09 01:28:50;;;;;;;8.50;5.20;;;;;;;6.97;50.95;100620.08;106957;1257;74588;-38
2023/05/09 01:31:17;;;;;;;9.70;4.70;;;;;;;6.97;50.75;100619.81;106959;1258;69952;-38
2023/05/09 01:33:49;;;;;;;9.50;4.70;;;;;;;6.98;50.72;100620.35;107087;1260;73096;-38
2023/05/09 01:36:17;;;;;;;8.50;4.90;;;;;;;7.00;50.31;100622.35;107137;1260;61825;-38
2023/05/09 01:38:44;;;;;;;8.40;5.00;;;;;;;7.01;50.17;100619.67;106298;1257;1002873;-38
2023/05/09 01:41:12;;;;;;;7.50;4.40;;;;;;;7.02;49.94;100620.62;107049;1259;75782;-38
2023/05/09 01:43:39;;;;;;;10.30;4.70;;;;;;;7.04;49.39;100626.42;107137;1257;68241;-38
2023/05/09 01:46:06;;;;;;;11.40;4.70;;;;;;;7.05;49.86;100625.85;106956;1257;74978;-37
2023/05/09 01:48:35;;;;;;;7.80;4.30;;;;;;;7.05;49.85;100626.80;107136;1260;60922;-37
2023/05/09 01:51:02;;;;;;;7.30;4.70;;;;;;;7.05;49.50;100627.52;107179;1263;60921;-38
2023/05/09 01:53:29;;;;;;;10.30;4.80;;;;;;;7.07;49.54;100623.20;107049;1257;73834;-37
2023/05/09 01:55:58;;;;;;;5.90;4.50;;;;;;;7.09;49.94;100622.09;107004;1257;67587;-38
2023/05/09 01:58:25;;;;;;;7.40;4.20;;;;;;;7.11;49.80;100619.27;107067;1260;71208;-38
2023/05/09 02:00:52;;;;;;;7.00;4.60;;;;;;;7.14;49.84;100622.21;106931;1260;60918;-38
2023/05/09 02:03:20;;;;;;;9.20;4.70;;;;;;;7.16;49.78;100623.05;107113;1260;60463;-38
2023/05/09 02:05:48;;;;;;;9.20;4.50;;;;;;;7.17;50.14;100619.57;107033;1258;75736;-37
2023/05/09 02:08:15;;;;;;;11.90;5.60;;;;;;;7.18;50.28;100619.39;106964;1257;70707;-37
2023/05/09 02:10:42;;;;;;;8.20;4.70;;;;;;;7.17;49.85;100615.25;106986;1258;74637;-37
2023/05/09 02:13:10;;;;;;;9.60;4.60;;;;;;;7.16;49.95;100612.48;107157;1260;61891;-37
2023/05/09 02:15:39;;;;;;;8.10;4.50;;;;;;;7.16;50.13;100616.58;107070;1257;61150;-37
2023/05/09 02:18:06;;;;;;;6.90;4.80;;;;;;;7.16;49.93;100621.22;107238;1260;74027;-37
2023/05/09 02:20:36;;;;;;;10.80;5.10;;;;;;;7.16;50.34;100621.27;107022;1257;68924;-37
2023/05/09 02:23:03;;;;;;;8.40;4.80;;;;;;;7.17;50.20;100621.63;107054;1257;75923;-37
2023/05/09 02:25:32;;;;;;;9.10;4.80;;;;;;;7.16;50.08;100620.84;107054;1257;61487;-37
2023/05/09 02:27:59;;;;;;;8.50;4.80;;;;;;;7.16;50.02;100621.58;107224;1257;62395;-37
2023/05/09 02:30:26;;;;;;;9.70;4.90;;;;;;;7.15;50.19;100618.95;107171;1256;75008;-37
2023/05/09 02:33:00;;;;;;;9.80;5.10;;;;;;;7.16;50.12;100621.43;107054;1257;69832;-37
2023/05/09 02:35:27;;;;;;;9.70;4.80;;;;;;;7.16;49.87;100619.38;107120;1257;71121;-37
2023/05/09 02:37:57;;;;;;;6.90;4.50;;;;;;;7.15;49.76;100622.10;107064;1257;60515;-37
2023/05/09 02:40:25;;;;;;;8.70;4.90;;;;;;;7.14;49.60;100621.48;107224;1257;62474;-37
2023/05/09 02:42:53;;;;;;;8.30;4.50;;;;;;;7.13;49.79;100619.66;107570;1252;75204;-37
2023/05/09 02:45:20;;;;;;;7.40;4.50;;;;;;;7.13;50.03;100620.84;107599;1257;68842;-37
2023/05/09 02:47:47;;;;;;;7.20;4.80;;;;;;;7.16;50.02;100624.45;107663;1253;74744;-37
2023/05/09 02:50:15;;;;;;;8.70;4.90;;;;;;;7.16;49.76;100622.23;107441;1252;61380;-37
2023/05/09 02:52:42;;;;;;;10.10;4.70;;;;;;;7.15;49.84;100623.34;107483;1253;60182;-37
2023/05/09 02:55:10;;;;;;;6.20;4.80;;;;;;;7.13;49.80;100622.62;107635;1256;73202;-37
2023/05/09 02:57:38;;;;;;;7.40;5.00;;;;;;;7.14;50.17;100620.24;107577;1253;69490;-37
2023/05/09 03:00:08;;;;;;;7.30;4.90;;;;;;;7.14;49.86;100622.46;107557;1254;74677;-37
2023/05/09 03:02:36;;;;;;;8.50;5.40;;;;;;;7.12;49.85;100624.48;107596;1253;60420;-37
2023/05/09 03:05:05;;;;;;;8.30;4.60;;;;;;;7.12;49.88;100624.60;107517;1252;60472;-37
2023/05/09 03:07:33;;;;;;;9.30;4.80;;;;;;;7.12;50.09;100626.05;107526;1253;73572;-37
2023/05/09 03:10:00;;;;;;;9.60;5.40;;;;;;;7.11;50.03;100623.96;107539;1253;68260;-37
2023/05/09 03:12:28;;;;;;;7.20;4.80;;;;;;;7.11;50.21;100624.30;107538;1253;71330;-37
2023/05/09 03:14:57;;;;;;;7.80;4.50;;;;;;;7.10;50.26;100623.83;107493;1253;60533;-37
2023/05/09 03:17:24;;;;;;;9.70;4.80;;;;;;;7.11;49.83;100630.06;107502;1253;61480;-38
2023/05/09 03:19:52;;;;;;;8.50;4.30;;;;;;;7.12;50.22;100630.27;103914;1253;1003821;-37
2023/05/09 03:22:19;;;;;;;7.90;5.10;;;;;;;7.14;50.20;100634.96;107531;1253;61044;-37
2023/05/09 03:24:59;;;;;;;7.30;4.70;;;;;;;7.15;50.22;100634.83;107509;1252;71834;-37
2023/05/09 03:27:26;;;;;;;8.70;5.20;;;;;;;7.14;49.78;100637.60;107490;1254;60499;-37
2023/05/09 03:29:54;;;;;;;8.00;4.80;;;;;;;7.13;49.90;100638.27;107745;1252;60382;-38
2023/05/09 03:32:21;;;;;;;8.40;4.30;;;;;;;7.15;49.63;100641.03;107512;1253;76175;-37
2023/05/09 03:34:48;;;;;;;9.00;5.00;;;;;;;7.15;49.45;100643.52;107513;1253;69540;-37
2023/05/09 03:37:17;;;;;;;7.60;4.90;;;;;;;7.15;49.52;100645.58;107549;1253;74653;-37
2023/05/09 03:39:44;;;;;;;6.90;4.60;;;;;;;7.15;49.69;100647.66;107512;1254;59694;-37
2023/05/09 03:42:12;;;;;;;7.20;4.80;;;;;;;7.16;50.09;100645.92;107559;1254;60270;-37
2023/05/09 03:44:39;;;;;;;6.80;4.70;;;;;;;7.18;50.29;100648.62;107484;1254;74004;-37
2023/05/09 03:47:07;;;;;;;8.10;4.60;;;;;;;7.21;50.32;100650.98;107490;1253;70327;-37
2023/05/09 03:49:37;;;;;;;;;;;;;;;7.19;49.81;100644.02;107509;1252;71196;-38
2023/05/09 03:52:04;;;;;;;7.20;4.60;;;;;;;7.20;49.72;100653.54;107528;1253;60457;-37
2023/05/09 03:54:32;;;;;;;6.70;5.10;;;;;;;7.18;50.24;100652.94;107526;1253;60533;-37
2023/05/09 03:57:00;;;;;;;7.80;4.70;;;;;;;7.24;49.94;100655.38;107530;1254;74003;-38
2023/05/09 03:59:27;;;;;;;9.20;4.70;;;;;;;7.29;49.74;100656.73;107563;1253;68941;-37
2023/05/09 04:01:54;;;;;;;8.80;4.90;;;;;;;7.33;49.54;100657.27;107512;1253;73685;-37
2023/05/09 04:04:23;;;;;;;8.60;4.30;;;;;;;7.35;49.73;100655.38;107622;1254;60485;-37
2023/05/09 04:06:51;;;;;;;8.50;4.70;;;;;;;7.37;49.37;100654.70;107665;1253;60611;-37
2023/05/09 04:09:19;;;;;;;9.00;4.30;;;;;;;7.38;49.23;100652.95;107457;1253;76058;-37
2023/05/09 04:11:46;;;;;;;7.90;5.10;;;;;;;7.39;49.05;100655.28;107619;1253;67689;-37
2023/05/09 04:14:14;;;;;;;10.10;4.80;;;;;;;7.42;49.52;100661.36;107530;1253;73269;-37
2023/05/09 04:16:41;;;;;;;8.90;4.60;;;;;;;7.48;49.52;100661.88;107604;1254;61766;-38
2023/05/09 04:19:08;;;;;;;8.00;4.80;;;;;;;7.53;49.65;100657.96;107576;1252;61327;-37
2023/05/09 04:21:37;;;;;;;8.40;4.50;;;;;;;7.59;49.04;100660.05;107487;1253;74600;-37
2023/05/09 04:24:05;;;;;;;9.30;4.90;;;;;;;7.60;49.06;100655.33;107606;1252;67964;-37
2023/05/09 04:26:37;;;;;;;10.50;4.50;;;;;;;7.68;48.45;100666.36;107674;1253;72723;-38
2023/05/09 04:29:07;;;;;;;9.90;5.20;;;;;;;7.70;48.47;100664.91;107541;1253;61942;-37
2023/05/09 04:31:35;;;;;;;10.30;5.20;;;;;;;7.72;48.67;100670.36;107513;1253;60975;-37
2023/05/09 04:34:03;;;;;;;9.40;5.10;;;;;;;7.76;48.82;100670.86;107521;1254;73861;-37
2023/05/09 04:36:32;;;;;;;11.20;5.30;;;;;;;7.77;48.12;100670.02;107575;1253;69110;-37
2023/05/09 04:38:59;;;;;;;8.20;5.20;;;;;;;7.77;47.98;100672.81;107553;1254;73948;-38
2023/05/09 04:41:27;;;;;;;7.00;5.40;;;;;;;7.78;48.09;100672.14;107620;1253;60742;-37
2023/05/09 04:43:55;;;;;;;13.40;5.50;;;;;;;7.81;48.28;100672.61;107527;1251;62559;-37
2023/05/09 04:46:24;;;;;;;8.90;5.10;;;;;;;7.87;48.43;100676.67;107730;1253;74783;-38
2023/05/09 04:48:52;;;;;;;8.40;4.70;;;;;;;7.92;48.21;100676.83;107799;1252;70258;-37
2023/05/09 04:51:19;;;;;;;8.30;5.00;;;;;;;7.97;48.06;100679.94;106752;1253;1003372;-37
2023/05/09 04:53:46;;;;;;;8.40;5.10;;;;;;;8.02;47.68;100682.82;107673;1253;61541;-37
2023/05/09 04:56:15;;;;;;;7.90;4.90;;;;;;;8.04;46.97;100678.61;107529;1257;60203;-37
2023/05/09 04:58:43;;;;;;;8.70;4.70;;;;;;;8.06;47.15;100683.95;107496;1254;74065;-37
2023/05/09 05:01:10;;;;;;;9.40;5.30;;;;;;;8.09;46.54;100686.10;107518;1257;67658;-37
2023/05/09 05:03:38;;;;;;;8.20;4.60;;;;;;;8.12;46.79;100686.71;107457;1253;73784;-37
2023/05/09 05:06:06;;;;;;;8.40;5.00;;;;;;;8.16;46.88;100685.84;107587;1253;60956;-37
2023/05/09 05:08:33;;;;;;;8.50;4.30;;;;;;;8.21;46.66;100684.79;107601;1253;60430;-37
2023/05/09 05:11:01;;;;;;;8.00;4.70;;;;;;;8.27;47.07;100685.28;107767;1252;73408;-37
2023/05/09 05:13:29;;;;;;;7.50;4.30;;;;;;;8.36;47.04;100679.77;107464;1252;66838;-37
2023/05/09 05:15:58;;;;;;;8.10;4.60;;;;;;;8.45;46.33;100681.11;107602;1252;74863;-37
2023/05/09 05:18:25;;;;;;;10.40;4.30;;;;;;;8.52;46.65;100681.77;107525;1253;62031;-37
2023/05/09 05:20:53;;;;;;;10.60;4.30;;;;;;;8.59;45.65;100680.16;107419;1253;60327;-37
2023/05/09 05:23:20;;;;;;;13.20;4.70;;;;;;;8.63;45.18;100679.52;107429;1253;75307;-38
2023/05/09 05:25:48;;;;;;;17.50;5.30;;;;;;;8.66;44.40;100682.60;107557;1252;68920;-38
2023/05/09 05:28:16;;;;;;;11.30;4.10;;;;;;;8.70;44.93;100685.34;107520;1253;73726;-37
2023/05/09 05:30:43;;;;;;;9.80;4.30;;;;;;;8.75;44.59;100684.33;107566;1253;60429;-38
2023/05/09 05:33:10;;;;;;;8.00;4.40;;;;;;;8.80;44.71;100684.80;107522;1257;60066;-38
2023/05/09 05:35:37;;;;;;;8.60;4.20;;;;;;;8.85;45.21;100685.45;107590;1253;72875;-37
2023/05/09 05:38:05;;;;;;;7.50;4.20;;;;;;;8.93;44.11;100688.04;107493;1253;70235;-37
2023/05/09 05:40:32;;;;;;;8.50;4.40;;;;;;;9.00;44.17;100690.30;107534;1253;72857;-38
2023/05/09 05:43:01;;;;;;;5.20;2.80;;;;;;;9.08;43.83;100688.05;107514;1254;60498;-38
2023/05/09 05:45:30;;;;;;;7.10;4.10;;;;;;;9.13;43.18;100689.30;107706;1253;61146;-37
2023/05/09 05:47:58;;;;;;;10.20;4.50;;;;;;;9.18;43.24;100690.65;107578;1253;75446;-38
2023/05/09 05:50:25;;;;;;;6.80;3.80;;;;;;;9.21;43.32;100691.86;107535;1253;69324;-38
2023/05/09 05:52:53;;;;;;;6.40;3.80;;;;;;;9.25;43.17;100691.06;107483;1253;71784;-38
2023/05/09 05:55:20;;;;;;;8.90;4.20;;;;;;;9.30;43.55;100691.52;107484;1253;61192;-38
2023/05/09 05:57:47;;;;;;;12.70;4.40;;;;;;;9.40;44.01;100693.05;107647;1252;62190;-38
2023/05/09 06:00:15;;;;;;;5.00;3.80;;;;;;;9.53;44.00;100693.15;107520;1253;72822;-38
2023/05/09 06:02:44;;;;;;;7.20;4.00;;;;;;;9.67;43.77;100690.79;107511;1258;68906;-38
2023/05/09 06:05:18;;;;;;;10.40;3.80;;;;;;;9.80;43.17;100691.71;107667;1256;73560;-37
2023/05/09 06:07:46;;;;;;;8.00;3.80;;;;;;;9.87;42.60;100691.77;107532;1252;60454;-38
2023/05/09 06:10:14;;;;;;;7.10;4.20;;;;;;;9.94;42.60;100690.80;107503;1253;60673;-38
2023/05/09 06:12:44;;;;;;;5.40;3.70;;;;;;;10.07;42.65;100690.39;107664;1252;74876;-38
2023/05/09 06:15:11;;;;;;;6.30;3.10;;;;;;;10.20;42.54;100692.96;107551;1253;69058;-38
2023/05/09 06:17:41;;;;;;;11.70;4.00;;;;;;;10.36;42.98;100692.48;107504;1253;74926;-38
2023/05/09 06:20:09;;;;;;;6.00;3.30;;;;;;;10.52;42.33;100688.61;107402;1252;62680;-38
2023/05/09 06:22:37;;;;;;;5.00;3.10;;;;;;;10.65;42.06;100686.29;107489;1253;62599;-37
2023/05/09 06:25:05;;;;;;;9.90;3.60;;;;;;;10.75;41.54;100683.67;107441;1254;75807;-37
2023/05/09 06:27:36;;;;;;;9.30;3.30;;;;;;;10.79;41.31;100685.78;107639;1253;70282;-37
2023/05/09 06:30:05;;;;;;;6.00;3.30;;;;;;;10.86;41.28;100683.55;107486;1253;75568;-38
2023/05/09 06:32:52;;;;;;;5.70;3.50;;;;;;;10.95;39.87;100685.05;107506;1253;62531;-38
2023/05/09 06:35:19;;;;;;;6.20;3.00;;;;;;;10.96;39.42;100685.73;107721;1253;61582;-38
2023/05/09 06:37:46;;;;;;;10.60;3.90;;;;;;;10.95;40.15;100691.19;107467;1258;75363;-38
2023/05/09 06:40:16;;;;;;;6.10;3.10;;;;;;;10.95;39.79;100692.72;107504;1254;70273;-38
2023/05/09 06:42:44;;;;;;;5.90;2.70;;;;;;;10.96;39.66;100689.69;107450;1254;74758;-38
2023/05/09 06:45:11;;;;;;;6.20;3.20;;;;;;;11.03;39.21;100689.58;107480;1254;61513;-38
2023/05/09 06:47:39;;;;;;;8.20;3.10;;;;;;;11.17;39.56;100683.95;107518;1254;62270;-38
2023/05/09 06:50:07;;;;;;;13.60;3.10;;;;;;;11.36;39.42;100677.52;107443;1254;75843;-38
2023/05/09 06:52:34;;;;;;;7.70;2.90;;;;;;;11.50;38.60;100684.09;107473;1254;70175;-38
2023/05/09 06:55:02;;;;;;;5.90;2.70;;;;;;;11.56;39.13;100683.54;107411;1256;74100;-38
2023/05/09 06:57:30;;;;;;;5.80;2.70;;;;;;;11.66;37.71;100681.19;107419;1258;61444;-38
2023/05/09 06:59:57;;;;;;;5.00;2.50;;;;;;;11.76;36.85;100680.09;107395;1254;62608;-38
2023/05/09 07:02:24;;;;;;;6.90;2.50;;;;;;;11.86;36.83;100677.18;107442;1253;75411;-38
2023/05/09 07:04:52;;;;;;;7.80;2.60;;;;;;;12.02;37.36;100668.16;107434;1254;70348;-38
2023/05/09 07:07:19;;;;;;;6.70;2.00;;;;;;;12.18;37.32;100667.62;107404;1256;75014;-38
2023/05/09 07:09:46;;;;;;;5.50;2.30;;;;;;;12.33;36.02;100663.63;107389;1254;60425;-37
2023/05/09 07:12:18;;;;;;;7.50;2.40;;;;;;;12.44;35.69;100664.28;107444;1254;61233;-38
2023/05/09 07:14:45;;;;;;;5.40;2.40;;;;;;;12.50;35.68;100664.63;106687;1254;1003774;-38
2023/05/09 07:17:13;;;;;;;5.20;2.50;;;;;;;12.58;35.35;100658.27;107520;1254;70344;-38
2023/05/09 07:19:49;;;;;;;3.30;2.10;;;;;;;12.63;33.91;100650.11;107435;1254;75063;-38
2023/05/09 07:22:17;;;;;;;3.50;2.00;;;;;;;12.68;33.70;100649.27;107427;1254;60663;-38
2023/05/09 07:24:45;;;;;;;7.40;2.20;;;;;;;12.78;34.29;100650.80;107486;1254;61858;-37
2023/05/09 07:27:12;;;;;;;4.40;2.30;;;;;;;12.88;34.67;100651.28;107449;1254;75571;-38
2023/05/09 07:29:40;;;;;;;4.40;2.20;;;;;;;13.04;33.98;100652.90;107454;1254;69443;-38
2023/05/09 07:32:07;;;;;;;3.80;2.10;;;;;;;13.12;33.20;100648.02;107432;1254;73884;-38
2023/05/09 07:34:35;;;;;;;4.00;2.00;;;;;;;13.16;33.78;100647.77;107435;1254;62354;-38
2023/05/09 07:37:02;;;;;;;2.70;1.90;;;;;;;13.23;32.99;100646.88;107368;1254;62032;-38
2023/05/09 07:39:29;;;;;;;4.90;2.10;;;;;;;13.30;31.85;100642.19;107351;1258;76097;-38
2023/05/09 07:41:57;;;;;;;4.70;1.80;;;;;;;13.37;31.64;100640.68;107369;1254;69396;-38
2023/05/09 07:44:24;;;;;;;2.70;1.80;;;;;;;13.48;32.21;100637.63;107439;1254;75558;-38
2023/05/09 07:46:51;;;;;;;2.70;1.80;;;;;;;13.57;32.03;100635.92;107418;1255;61057;-38
2023/05/09 07:49:18;;;;;;;4.40;2.00;;;;;;;13.67;31.51;100634.73;107393;1256;62775;-38
2023/05/09 07:51:45;;;;;;;3.80;1.90;;;;;;;13.75;31.13;100635.71;107367;1254;76594;-37
2023/05/09 07:54:12;;;;;;;3.20;2.10;;;;;;;13.72;31.31;100637.02;107316;1254;70306;-37
2023/05/09 07:56:40;;;;;;;4.40;2.10;;;;;;;13.63;31.17;100635.33;107344;1258;75090;-37
2023/05/09 07:59:07;;;;;;;3.90;2.00;;;;;;;13.66;31.67;100631.65;107407;1254;60650;-36
2023/05/09 08:01:34;;;;;;;5.70;1.90;;;;;;;13.73;31.90;100629.37;107443;1253;61684;-37
2023/05/09 08:04:01;;;;;;;3.90;2.00;;;;;;;13.88;31.89;100621.02;107389;1254;75436;-37
2023/05/09 08:06:29;;;;;;;6.40;2.10;;;;;;;14.11;31.81;100622.91;107426;1254;70563;-37
2023/05/09 08:08:56;;;;;;;2.70;2.00;;;;;;;14.29;30.88;100620.86;107413;1254;74342;-37
2023/05/09 08:11:23;;;;;;;6.20;2.00;;;;;;;14.27;28.47;100622.63;107375;1254;62157;-37
2023/05/09 08:13:50;;;;;;;2.00;1.60;;;;;;;14.13;28.20;100621.26;107438;1255;61015;-37
2023/05/09 08:16:18;;;;;;;3.30;1.90;;;;;;;13.93;28.15;100614.35;107447;1254;76263;-38
2023/05/09 08:18:45;;;;;;;3.10;1.90;;;;;;;13.74;28.90;100620.72;107464;1254;69874;-37
2023/05/09 08:21:12;;;;;;;2.50;1.80;;;;;;;13.64;29.12;100622.88;107394;1254;74955;-37
2023/05/09 08:23:40;;;;;;;2.90;1.80;;;;;;;13.49;27.47;100611.89;107413;1254;60537;-37
2023/05/09 08:26:07;;;;;;;4.30;1.80;;;;;;;13.39;29.12;100614.21;107439;1254;60854;-37
2023/05/09 08:28:34;;;;;;;5.20;1.80;;;;;;;13.32;27.35;100612.28;107412;1254;74689;-37
2023/05/09 08:31:01;;;;;;;2.00;1.70;;;;;;;13.36;28.47;100609.14;107282;1254;70194;-36
2023/05/09 08:33:29;;;;;;;2.70;1.80;;;;;;;13.41;28.03;100604.98;107434;1258;75737;-37
2023/05/09 08:35:56;;;;;;;1.90;1.70;;;;;;;13.46;27.10;100608.77;107320;1254;61141;-37
2023/05/09 08:38:23;;;;;;;4.70;1.90;;;;;;;13.42;27.43;100606.41;107324;1254;62719;-37
2023/05/09 08:40:51;;;;;;;4.20;2.10;;;;;;;13.36;28.02;100609.27;107443;1254;76133;-37
2023/05/09 08:43:18;;;;;;;3.00;1.80;;;;;;;13.31;28.60;100606.33;107350;1254;69961;-36
2023/05/09 08:45:47;;;;;;;5.20;1.70;;;;;;;13.27;28.71;100608.65;107339;1254;74618;-37
2023/05/09 08:48:15;;;;;;;3.50;1.90;;;;;;;13.28;28.30;100602.05;107461;1254;62665;-37
2023/05/09 08:50:43;;;;;;;2.70;2.00;;;;;;;13.30;28.60;100598.52;107463;1254;61107;-36
2023/05/09 08:53:13;;;;;;;4.20;2.00;;;;;;;13.38;29.30;100600.61;107409;1254;76172;-36
2023/05/09 08:55:40;;;;;;;3.70;2.10;;;;;;;13.49;28.60;100598.72;107358;1254;69844;-37
2023/05/09 08:58:08;;;;;;;3.80;1.90;;;;;;;13.59;28.25;100601.39;107284;1254;74007;-37
2023/05/09 09:00:37;;;;;;;5.40;2.00;;;;;;;13.72;27.60;100597.77;107443;1254;61395;-37
2023/05/09 09:03:04;;;;;;;5.50;2.40;;;;;;;13.90;27.30;100596.44;107516;1253;62618;-36
2023/05/09 09:05:32;;;;;;;3.00;1.90;;;;;;;14.14;26.90;100602.11;107322;1256;76011;-37
2023/05/09 09:08:08;;;;;;;2.70;1.80;;;;;;;14.44;26.88;100593.26;107448;1254;68495;-37
2023/05/09 09:10:35;;;;;;;3.40;1.70;;;;;;;14.71;25.97;100585.98;107420;1254;73875;-37
2023/05/09 09:13:03;;;;;;;5.50;2.20;;;;;;;14.88;26.34;100587.91;107483;1254;60589;-36
2023/05/09 09:15:35;;;;;;;5.90;2.30;;;;;;;14.96;25.99;100587.30;107443;1253;61872;-37
2023/05/09 09:18:06;;;;;;;3.40;1.90;;;;;;;15.05;25.52;100587.42;107397;1254;75853;-37
2023/05/09 09:20:36;;;;;;;3.50;2.20;;;;;;;15.14;25.33;100587.14;107286;1254;68711;-37
2023/05/09 09:23:04;;;;;;;3.70;1.80;;;;;;;15.32;26.45;100586.21;107345;1254;75281;-37
2023/05/09 09:25:31;;;;;;;7.10;1.90;;;;;;;15.54;25.45;100576.81;107359;1254;60432;-37
2023/05/09 09:27:58;;;;;;;2.20;1.90;;;;;;;15.74;25.54;100579.98;107319;1254;61239;-37
2023/05/09 09:30:26;;;;;;;2.60;1.90;;;;;;;15.88;24.64;100579.30;107375;1254;76365;-37
2023/05/09 09:32:53;;;;;;;8.40;1.80;;;;;;;16.00;25.18;100571.85;107408;1254;70270;-37
2023/05/09 09:35:21;;;;;;;7.20;2.10;;;;;;;16.19;25.06;100569.18;107387;1258;72747;-37
2023/05/09 09:37:48;;;;;;;3.50;1.80;;;;;;;16.35;24.52;100570.74;107444;1254;62371;-37
2023/05/09 09:42:57;;;;;;;3.80;2.10;;;;;;;16.55;24.19;100561.10;104187;1295;600479;-36
2023/05/09 09:45:26;;;;;;;4.30;1.90;;;;;;;16.43;23.71;100564.22;106614;1266;62761;-36
2023/05/09 09:47:54;;;;;;;5.50;2.00;;;;;;;16.28;23.54;100566.34;106635;1267;60833;-37
2023/05/09 09:50:24;;;;;;;3.50;1.90;;;;;;;16.26;24.65;100566.38;106693;1266;74373;-36
2023/05/09 09:52:52;;;;;;;;;;;;;;;16.44;24.56;100561.48;106699;1266;69424;-36
2023/05/09 09:55:20;;;;;;;2.50;2.00;;;;;;;16.60;23.01;100557.44;106750;1266;73091;-37
2023/05/09 09:57:48;;;;;;;2.90;1.70;;;;;;;16.76;23.18;100556.95;106724;1268;177435;-37
2023/05/09 10:00:17;;;;;;;4.50;1.80;;;;;;;16.85;23.20;100563.02;106816;1263;60265;-37
2023/05/09 10:02:52;;;;;;;2.80;2.10;;;;;;;16.85;23.75;100568.73;106822;1263;73336;-37
2023/05/09 10:05:19;;;;;;;6.30;1.70;;;;;;;16.71;22.85;100563.30;106811;1264;69493;-37
2023/05/09 10:07:58;;;;;;;3.90;1.90;;;;;;;16.41;23.62;100564.03;106724;1263;74996;-37
2023/05/09 10:10:27;;;;;;;3.90;1.90;;;;;;;16.11;23.88;100565.84;106710;1264;62351;-37
2023/05/09 10:12:56;;;;;;;3.80;1.80;;;;;;;15.96;24.54;100569.52;106834;1263;62474;-37
2023/05/09 10:15:24;;;;;;;2.80;1.80;;;;;;;15.88;24.41;100563.28;106838;1268;73952;-36
2023/05/09 10:17:59;;;;;;;3.30;2.20;;;;;;;15.79;24.09;100560.80;106808;1264;70184;-37
2023/05/09 10:20:27;;;;;;;3.60;1.90;;;;;;;15.72;24.11;100556.70;106803;1264;73887;-37
2023/05/09 10:23:00;;;;;;;3.70;2.00;;;;;;;15.77;24.86;100564.52;106741;1263;62586;-36
2023/05/09 10:25:38;;;;;;;3.60;1.90;;;;;;;15.90;24.77;100562.46;106725;1263;60628;-36
2023/05/09 10:28:14;;;;;;;3.50;1.80;;;;;;;16.01;24.61;100559.98;106773;1269;75146;-37
2023/05/09 10:31:00;;;;;;;3.10;1.70;;;;;;;16.07;24.83;100559.14;106792;1263;70551;-37
2023/05/09 10:33:36;;;;;;;4.00;1.80;;;;;;;16.26;24.55;100553.41;106898;1264;74967;-36
2023/05/09 10:36:04;;;;;;;5.90;1.90;;;;;;;16.49;24.84;100550.46;106873;1264;61775;-36
2023/05/09 10:38:31;;;;;;;3.60;1.90;;;;;;;16.68;24.48;100549.64;106896;1263;62675;-37
2023/05/09 10:40:58;;;;;;;5.60;1.80;;;;;;;16.75;23.80;100548.34;106823;1263;75356;-38
2023/05/09 10:43:26;;;;;;;3.60;1.70;;;;;;;16.79;23.46;100545.26;106766;1263;69014;-37
2023/05/09 10:45:53;;;;;;;3.30;1.70;;;;;;;16.83;23.95;100543.36;106809;1264;74918;-37
2023/05/09 10:48:20;;;;;;;4.00;1.90;;;;;;;16.79;23.80;100543.77;106703;1264;61138;-38
2023/05/09 10:50:47;;;;;;;5.50;1.40;;;;;;;16.76;23.95;100548.73;106709;1264;62622;-37
2023/05/09 10:53:16;;;;;;;5.90;1.90;;;;;;;16.81;24.48;100540.19;106710;1264;75058;-37
2023/05/09 10:55:54;;;;;;;3.80;1.20;;;;;;;17.03;24.18;100539.05;106799;1268;70285;-37
2023/05/09 10:58:23;;;;;;;2.00;1.40;;;;;;;17.28;24.51;100540.48;106846;1264;75056;-37
2023/05/09 11:00:51;;;;;;;2.10;1.60;;;;;;;17.43;23.41;100536.35;106824;1269;62836;-37
2023/05/09 11:03:22;;;;;;;;;;;;;;;17.41;23.14;100534.92;106833;1268;63294;-37
2023/05/09 11:05:54;;;;;;;3.70;1.70;;;;;;;17.22;22.81;100534.24;106915;1263;72304;-37
2023/05/09 11:08:24;;;;;;;4.60;2.00;;;;;;;17.08;23.68;100534.73;106761;1263;68346;-37
2023/05/09 11:10:55;;;;;;;4.90;2.00;;;;;;;17.02;23.78;100540.59;106888;1265;73964;-37
2023/05/09 11:13:29;;;;;;;3.20;1.80;;;;;;;16.84;23.24;100537.95;106740;1266;61875;-37
2023/05/09 11:16:00;;;;;;;4.90;1.90;;;;;;;16.60;23.61;100536.16;106776;1263;59800;-37
2023/05/09 11:18:28;;;;;;;3.20;1.80;;;;;;;16.54;23.93;100528.85;106757;1263;75289;-37
2023/05/09 11:20:55;;;;;;;3.00;1.70;;;;;;;16.71;23.36;100524.80;106820;1263;69104;-38
2023/05/09 11:23:26;;;;;;;2.90;1.80;;;;;;;16.98;23.44;100523.65;106793;1266;74723;-37
2023/05/09 11:25:53;;;;;;;3.00;1.80;;;;;;;17.41;23.90;100519.58;106795;1263;62747;-37
2023/05/09 11:28:30;;;;;;;4.40;2.00;;;;;;;17.97;23.76;100513.08;106772;1263;62716;-37
2023/05/09 11:31:16;;;;;;;4.20;2.10;;;;;;;18.60;22.17;100509.56;106828;1263;75051;-37